Time;durP1;ratioP1;P1;durP2;ratioP2;P2;SDS_P1;SDS_P2;PMS_P1;PMS_P2;Temp;Humidity;BMP_temperature;BMP_pressure;BME280_temperature;BME280_humidity;BME280_pressure;Samples;Min_cycle;Max_cycle;Signal;HPM_P1;HPM_P2
2022/09/11 00:01:39;;;;;;;4.70;2.97;;;20.30;65.90;;;;;;5011791;28;20445;-84
2022/09/11 00:04:07;;;;;;;7.23;3.57;;;20.30;66.40;;;;;;5043521;28;20469;-83
2022/09/11 00:06:34;;;;;;;5.20;3.90;;;20.30;65.80;;;;;;5040537;28;20462;-84
2022/09/11 00:09:04;;;;;;;4.20;3.80;;;20.30;65.40;;;;;;5049703;28;20467;-84
2022/09/11 00:11:34;;;;;;;3.97;3.67;;;20.30;65.70;;;;;;5046601;28;20967;-84
2022/09/11 00:14:01;;;;;;;4.10;3.80;;;20.20;65.80;;;;;;5033846;28;20444;-86
2022/09/11 00:16:32;;;;;;;4.13;3.73;;;20.30;66.10;;;;;;5045590;28;20449;-85
2022/09/11 00:19:02;;;;;;;4.07;3.77;;;20.40;65.50;;;;;;5044702;28;20471;-84
2022/09/11 00:21:29;;;;;;;5.30;4.40;;;20.40;64.90;;;;;;5067837;28;20452;-84
2022/09/11 00:23:57;;;;;;;4.30;3.87;;;20.50;65.20;;;;;;5064769;28;20589;-84
2022/09/11 00:26:25;;;;;;;4.50;4.07;;;20.40;65.40;;;;;;5047216;28;20827;-84
2022/09/11 00:28:53;;;;;;;4.60;3.90;;;20.40;66.00;;;;;;5044785;28;20463;-84
2022/09/11 00:31:23;;;;;;;5.70;4.33;;;20.50;65.80;;;;;;5036728;28;20462;-86
2022/09/11 00:33:50;;;;;;;7.17;4.20;;;20.50;65.40;;;;;;5048020;28;20452;-84
2022/09/11 00:36:19;;;;;;;7.13;4.80;;;20.40;65.50;;;;;;5044536;28;20489;-85
2022/09/11 00:38:48;;;;;;;3.90;3.60;;;20.30;66.30;;;;;;5049103;28;20475;-84
2022/09/11 00:41:17;;;;;;;5.80;4.77;;;20.20;66.60;;;;;;5064247;28;20562;-84
2022/09/11 00:43:59;;;;;;;5.33;4.47;;;20.30;66.80;;;;;;5033654;28;20457;-84
2022/09/11 00:46:33;;;;;;;4.80;4.33;;;20.20;66.40;;;;;;5062692;28;20439;-83
2022/09/11 00:49:02;;;;;;;4.83;4.17;;;20.20;67.60;;;;;;5067684;28;20547;-83
2022/09/11 00:51:33;;;;;;;5.00;4.30;;;20.20;67.00;;;;;;5030540;28;20453;-85
2022/09/11 00:54:02;;;;;;;5.87;4.37;;;20.30;66.50;;;;;;5047340;28;20573;-84
2022/09/11 00:56:31;;;;;;;4.30;3.90;;;20.40;66.00;;;;;;5037862;28;21013;-84
2022/09/11 00:59:00;;;;;;;5.37;4.87;;;20.40;66.00;;;;;;5062413;28;20992;-85
2022/09/11 01:01:28;;;;;;;5.37;4.83;;;20.50;65.70;;;;;;5048148;28;20476;-84
2022/09/11 01:03:55;;;;;;;7.00;4.33;;;20.60;65.70;;;;;;5036167;28;20449;-83
2022/09/11 01:06:24;;;;;;;7.87;4.77;;;20.80;65.50;;;;;;5046885;28;20451;-84
2022/09/11 01:08:51;;;;;;;5.50;4.93;;;20.80;65.30;;;;;;5045296;28;20965;-83
2022/09/11 01:11:36;;;;;;;7.40;5.23;;;20.80;65.80;;;;;;5064212;28;20568;-85
2022/09/11 01:14:12;;;;;;;5.97;5.37;;;20.80;65.00;;;;;;5027196;28;20463;-84
2022/09/11 01:16:44;;;;;;;5.63;5.13;;;20.80;65.40;;;;;;5064359;28;20448;-84
2022/09/11 01:19:27;;;;;;;6.30;4.97;;;20.90;64.80;;;;;;5026258;28;20581;-83
2022/09/11 01:22:17;;;;;;;6.33;5.53;;;20.70;64.90;;;;;;5042956;28;20445;-85
2022/09/11 01:24:55;;;;;;;6.80;5.83;;;20.60;65.70;;;;;;5031595;28;20502;-85
2022/09/11 01:27:40;;;;;;;6.40;5.70;;;20.70;65.20;;;;;;5052094;28;20460;-84
2022/09/11 01:30:10;;;;;;;7.67;5.90;;;20.80;64.90;;;;;;5049575;28;20473;-85
2022/09/11 01:32:46;;;;;;;7.93;5.87;;;20.80;65.00;;;;;;5049778;28;20447;-84
2022/09/11 01:35:20;;;;;;;8.63;6.30;;;20.70;64.70;;;;;;5056324;28;21116;-86
2022/09/11 01:37:54;;;;;;;6.57;5.37;;;20.70;64.70;;;;;;5045974;28;20451;-83
2022/09/11 01:40:26;;;;;;;7.40;5.87;;;20.70;65.20;;;;;;5047829;28;21150;-85
2022/09/11 01:43:05;;;;;;;8.00;6.03;;;20.70;65.30;;;;;;5044844;28;21056;-84
2022/09/11 01:45:36;;;;;;;7.00;5.30;;;20.70;65.20;;;;;;5043125;28;20445;-84
2022/09/11 01:48:05;;;;;;;8.27;7.00;;;20.70;65.30;;;;;;5047373;28;20450;-84
2022/09/11 01:50:36;;;;;;;7.00;6.27;;;20.70;65.50;;;;;;5060289;28;20444;-86
2022/09/11 01:53:06;;;;;;;7.77;6.20;;;20.80;65.40;;;;;;5047961;28;20471;-84
2022/09/11 01:55:39;;;;;;;6.73;6.03;;;20.90;65.30;;;;;;5048943;28;20459;-84
2022/09/11 01:58:10;;;;;;;7.97;6.80;;;20.70;65.20;;;;;;5029593;28;20535;-85
2022/09/11 02:00:48;;;;;;;8.70;7.80;;;20.80;65.50;;;;;;5047261;28;20468;-85
2022/09/11 02:03:21;;;;;;;8.90;7.40;;;20.80;65.70;;;;;;5045653;28;20808;-84
2022/09/11 02:05:55;;;;;;;7.90;7.10;;;20.90;65.50;;;;;;5053271;28;20453;-84
2022/09/11 02:08:30;;;;;;;8.43;6.97;;;20.90;65.20;;;;;;5026083;28;21019;-85
2022/09/11 02:11:03;;;;;;;7.70;6.90;;;20.80;65.40;;;;;;5032018;28;20444;-84
2022/09/11 02:13:36;;;;;;;8.90;7.53;;;20.90;65.30;;;;;;5042497;28;20441;-84
2022/09/11 02:16:14;;;;;;;12.20;8.00;;;20.90;65.20;;;;;;5029300;28;20456;-85
2022/09/11 02:18:45;;;;;;;8.70;7.50;;;20.70;65.10;;;;;;5048950;28;20480;-85
2022/09/11 02:21:12;;;;;;;6.87;6.10;;;20.80;65.20;;;;;;5063341;28;20465;-84
2022/09/11 02:23:39;;;;;;;7.37;6.23;;;20.80;65.20;;;;;;5033216;28;20457;-84
2022/09/11 02:26:08;;;;;;;8.30;7.00;;;20.80;65.10;;;;;;5041793;28;20994;-85
2022/09/11 02:28:37;;;;;;;7.50;6.30;;;20.70;65.30;;;;;;5050595;28;20538;-84
2022/09/11 02:31:06;;;;;;;8.93;7.37;;;20.60;65.70;;;;;;5044384;28;20445;-85
2022/09/11 02:33:34;;;;;;;7.10;6.30;;;20.50;65.90;;;;;;5027432;28;20441;-84
2022/09/11 02:36:21;;;;;;;8.43;6.63;;;20.50;65.80;;;;;;5041622;28;20543;-84
2022/09/11 02:38:57;;;;;;;7.17;6.47;;;20.50;65.50;;;;;;5043766;28;20476;-84
2022/09/11 02:41:30;;;;;;;8.20;7.23;;;20.40;65.90;;;;;;5034026;28;20480;-84
2022/09/11 02:44:10;;;;;;;7.57;6.77;;;20.50;66.20;;;;;;5046751;28;20438;-85
2022/09/11 02:46:56;;;;;;;8.20;6.60;;;20.50;66.30;;;;;;5045800;28;20440;-84
2022/09/11 02:49:33;;;;;;;7.90;7.10;;;20.50;65.80;;;;;;5029767;28;20485;-85
2022/09/11 02:52:08;;;;;;;8.63;6.93;;;20.40;66.40;;;;;;5023757;28;20543;-84
2022/09/11 02:54:47;;;;;;;8.07;6.30;;;20.40;66.40;;;;;;5025004;28;20967;-85
2022/09/11 02:57:21;;;;;;;8.97;6.63;;;20.40;66.30;;;;;;5012251;28;20944;-84
2022/09/11 02:59:53;;;;;;;7.27;6.57;;;20.30;66.10;;;;;;5044235;28;20474;-85
2022/09/11 03:02:20;;;;;;;7.00;6.20;;;20.40;66.30;;;;;;5012785;28;21024;-84
2022/09/11 03:04:49;;;;;;;6.73;6.10;;;20.40;65.70;;;;;;5030232;28;20585;-84
2022/09/11 03:07:17;;;;;;;7.03;6.17;;;20.40;65.40;;;;;;5049108;28;20527;-83
2022/09/11 03:09:44;;;;;;;6.97;6.27;;;20.40;65.60;;;;;;5028589;28;20486;-86
2022/09/11 03:12:19;;;;;;;6.97;6.27;;;20.40;65.70;;;;;;5018663;28;21042;-84
2022/09/11 03:14:51;;;;;;;10.60;7.20;;;20.40;65.60;;;;;;5008367;28;20513;-83
2022/09/11 03:17:19;;;;;;;8.50;7.70;;;20.60;65.40;;;;;;5028055;28;20467;-83
2022/09/11 03:19:47;;;;;;;7.97;7.20;;;20.80;65.40;;;;;;5045210;28;20548;-85
2022/09/11 03:22:14;;;;;;;9.73;7.60;;;20.90;64.90;;;;;;5026945;28;20448;-82
2022/09/11 03:24:42;;;;;;;10.40;7.90;;;21.00;64.60;;;;;;5046955;28;20477;-84
2022/09/11 03:27:09;;;;;;;8.13;6.63;;;21.10;64.10;;;;;;5024327;28;20537;-84
2022/09/11 03:29:38;;;;;;;9.30;7.80;;;21.10;64.10;;;;;;5043502;28;20472;-85
2022/09/11 03:32:07;;;;;;;8.90;7.33;;;21.10;63.80;;;;;;5044024;28;20461;-85
2022/09/11 03:34:34;;;;;;;9.80;8.10;;;21.20;63.90;;;;;;5026153;28;20453;-83
2022/09/11 03:37:01;;;;;;;9.20;8.03;;;21.20;64.30;;;;;;5031455;28;21018;-84
2022/09/11 03:39:28;;;;;;;11.20;7.03;;;21.20;64.10;;;;;;5044693;28;20510;-85
2022/09/11 03:41:58;;;;;;;9.23;6.60;;;21.30;64.10;;;;;;5045080;28;20437;-85
2022/09/11 03:44:26;;;;;;;8.53;6.83;;;21.20;63.40;;;;;;5028495;28;20460;-84
2022/09/11 03:46:53;;;;;;;8.37;6.70;;;21.10;63.40;;;;;;5024956;28;20455;-85
2022/09/11 03:49:21;;;;;;;8.40;6.80;;;21.00;63.80;;;;;;5012225;28;20565;-85
2022/09/11 03:51:49;;;;;;;6.97;6.27;;;21.00;64.00;;;;;;5026591;28;20464;-84
2022/09/11 03:54:16;;;;;;;9.37;6.53;;;21.00;64.10;;;;;;5042182;28;20523;-84
2022/09/11 03:56:45;;;;;;;7.17;6.43;;;21.00;64.30;;;;;;5043193;28;20464;-84
2022/09/11 03:59:12;;;;;;;7.53;6.50;;;21.00;64.30;;;;;;5031451;28;21059;-85
2022/09/11 04:01:39;;;;;;;6.23;5.53;;;20.90;64.20;;;;;;5058093;28;20495;-84
2022/09/11 04:04:06;;;;;;;9.03;6.67;;;20.90;64.00;;;;;;5015352;28;21132;-84
2022/09/11 04:06:40;;;;;;;8.27;5.30;;;20.90;64.30;;;;;;5030897;28;20543;-83
2022/09/11 04:09:07;;;;;;;7.70;5.60;;;20.90;64.40;;;;;;5058223;28;20504;-86
2022/09/11 04:11:37;;;;;;;5.83;5.27;;;21.00;64.30;;;;;;5024388;28;20451;-86
2022/09/11 04:14:07;;;;;;;5.93;5.33;;;21.10;64.20;;;;;;5041362;28;21303;-83
2022/09/11 04:16:35;;;;;;;7.40;5.60;;;21.00;63.80;;;;;;5030939;28;20449;-85
2022/09/11 04:19:02;;;;;;;6.77;6.07;;;21.00;63.80;;;;;;5040660;28;20560;-85
2022/09/11 04:21:31;;;;;;;7.27;6.30;;;21.00;63.80;;;;;;5032689;28;21001;-86
2022/09/11 04:24:00;;;;;;;5.80;5.00;;;21.10;63.90;;;;;;5024965;28;20452;-85
2022/09/11 04:26:31;;;;;;;6.07;5.57;;;21.00;63.30;;;;;;5043735;28;20498;-84
2022/09/11 04:29:05;;;;;;;5.50;5.00;;;20.90;63.70;;;;;;5049064;28;20455;-85
2022/09/11 04:31:35;;;;;;;5.93;5.40;;;20.80;63.90;;;;;;5028500;28;20435;-86
2022/09/11 04:34:02;;;;;;;8.50;5.47;;;20.70;64.10;;;;;;5020874;28;20445;-84
2022/09/11 04:36:32;;;;;;;6.50;5.77;;;20.70;64.30;;;;;;5028280;28;20472;-84
2022/09/11 04:39:01;;;;;;;5.87;5.30;;;20.70;64.20;;;;;;5025501;28;20472;-84
2022/09/11 04:41:28;;;;;;;6.83;6.13;;;20.70;64.00;;;;;;5044533;28;20473;-85
2022/09/11 04:43:59;;;;;;;5.73;5.20;;;20.80;64.20;;;;;;5038728;28;20444;-84
2022/09/11 04:46:26;;;;;;;5.90;5.37;;;20.80;64.00;;;;;;5037755;28;20460;-84
2022/09/11 04:48:56;;;;;;;6.20;5.30;;;20.90;63.80;;;;;;5059088;28;20484;-84
2022/09/11 04:51:26;;;;;;;6.30;4.90;;;20.90;63.90;;;;;;5040741;28;20448;-84
2022/09/11 04:53:56;;;;;;;7.03;5.10;;;21.00;63.70;;;;;;5056515;28;20450;-84
2022/09/11 04:56:26;;;;;;;6.57;5.00;;;21.00;63.70;;;;;;5038434;28;20467;-84
2022/09/11 04:58:55;;;;;;;6.30;5.30;;;21.00;63.60;;;;;;5047037;28;20500;-85
2022/09/11 05:01:26;;;;;;;9.40;5.83;;;21.00;63.30;;;;;;5006926;28;21009;-86
2022/09/11 05:03:57;;;;;;;5.97;5.37;;;20.90;63.20;;;;;;5037517;28;20450;-84
2022/09/11 05:06:23;;;;;;;5.23;4.73;;;20.90;63.30;;;;;;5042061;28;20994;-84
2022/09/11 05:08:51;;;;;;;7.07;5.07;;;20.90;63.10;;;;;;5032104;28;20477;-85
2022/09/11 05:11:20;;;;;;;7.33;4.70;;;20.90;62.80;;;;;;5031675;28;20539;-84
2022/09/11 05:13:48;;;;;;;5.87;5.27;;;20.90;63.00;;;;;;5023139;28;20464;-85
2022/09/11 05:16:18;;;;;;;6.83;6.13;;;20.90;63.10;;;;;;5032267;28;20461;-86
2022/09/11 05:18:51;;;;;;;6.67;6.07;;;20.90;63.00;;;;;;5036654;28;21172;-84
2022/09/11 05:21:21;;;;;;;6.60;5.00;;;20.90;62.90;;;;;;5033108;28;20463;-85
2022/09/11 05:23:50;;;;;;;6.63;5.93;;;20.90;63.10;;;;;;5046320;28;20453;-84
2022/09/11 05:26:19;;;;;;;6.87;5.60;;;20.90;63.10;;;;;;5061771;28;20484;-85
2022/09/11 05:28:48;;;;;;;10.17;6.10;;;20.90;62.70;;;;;;5047041;28;20480;-84
2022/09/11 05:31:17;;;;;;;6.47;5.80;;;20.80;62.90;;;;;;5034765;28;21261;-87
2022/09/11 05:33:45;;;;;;;7.27;6.27;;;20.70;62.90;;;;;;5052185;28;20453;-84
2022/09/11 05:36:14;;;;;;;9.13;6.43;;;20.80;63.20;;;;;;5045546;28;20456;-83
2022/09/11 05:38:42;;;;;;;9.50;6.00;;;20.70;62.90;;;;;;5065498;28;20482;-84
2022/09/11 05:41:10;;;;;;;9.23;6.83;;;20.80;63.00;;;;;;5030261;28;20463;-85
2022/09/11 05:43:39;;;;;;;7.60;6.13;;;20.80;63.00;;;;;;5036579;28;20506;-84
2022/09/11 05:46:10;;;;;;;6.93;5.73;;;20.90;63.00;;;;;;5045193;28;20988;-87
2022/09/11 05:48:37;;;;;;;6.50;5.30;;;20.90;62.90;;;;;;5043236;28;20547;-84
2022/09/11 05:51:07;;;;;;;7.33;6.63;;;21.10;62.70;;;;;;5045859;28;20447;-85
2022/09/11 05:53:34;;;;;;;7.30;6.20;;;21.10;62.90;;;;;;5028076;28;20448;-84
2022/09/11 05:56:08;;;;;;;9.50;7.37;;;21.10;62.60;;;;;;5027148;28;20461;-84
2022/09/11 05:58:35;;;;;;;8.23;6.43;;;21.20;62.50;;;;;;5041663;28;20512;-85
2022/09/11 06:01:08;;;;;;;8.53;6.03;;;21.20;62.40;;;;;;4999608;28;20575;-85
2022/09/11 06:03:38;;;;;;;7.57;5.97;;;21.20;62.20;;;;;;5062921;28;20470;-85
2022/09/11 06:06:07;;;;;;;7.00;6.30;;;21.30;62.60;;;;;;5044856;28;20453;-85
2022/09/11 06:08:35;;;;;;;7.63;6.40;;;21.30;62.40;;;;;;5044198;28;20573;-86
2022/09/11 06:11:06;;;;;;;8.17;6.63;;;21.30;62.30;;;;;;5020145;28;20486;-84
2022/09/11 06:13:35;;;;;;;8.43;6.17;;;21.30;62.30;;;;;;5062567;28;20498;-85
2022/09/11 06:16:03;;;;;;;8.67;6.10;;;21.20;62.50;;;;;;5027341;28;20794;-84
2022/09/11 06:18:33;;;;;;;6.83;6.10;;;21.20;62.70;;;;;;5039469;28;20525;-85
2022/09/11 06:21:02;;;;;;;9.43;7.00;;;21.20;63.70;;;;;;5027291;28;20472;-85
2022/09/11 06:23:36;;;;;;;11.73;7.20;;;21.30;62.80;;;;;;5048579;28;20856;-86
2022/09/11 06:26:04;;;;;;;11.67;7.60;;;21.30;63.00;;;;;;5043927;28;20459;-84
2022/09/11 06:28:35;;;;;;;8.17;7.37;;;21.20;62.90;;;;;;5049132;28;20595;-86
2022/09/11 06:31:04;;;;;;;9.50;7.70;;;21.20;63.10;;;;;;5045301;28;20485;-85
2022/09/11 06:33:36;;;;;;;7.80;6.90;;;21.20;63.00;;;;;;5042982;28;20473;-84
2022/09/11 06:36:08;;;;;;;8.50;7.60;;;20.90;62.80;;;;;;5051999;28;20446;-84
2022/09/11 06:38:35;;;;;;;12.47;8.20;;;20.90;63.70;;;;;;5045482;28;20476;-84
2022/09/11 06:41:04;;;;;;;11.00;9.27;;;20.60;63.80;;;;;;5043735;28;20484;-85
2022/09/11 06:43:35;;;;;;;9.43;7.80;;;20.70;63.80;;;;;;5024141;28;20458;-84
2022/09/11 06:46:03;;;;;;;11.00;8.27;;;20.80;63.40;;;;;;5044946;28;20517;-85
2022/09/11 06:48:34;;;;;;;10.80;8.30;;;20.90;63.40;;;;;;5036698;28;20500;-85
2022/09/11 06:51:06;;;;;;;8.97;7.80;;;21.00;62.90;;;;;;5043650;28;20875;-84
2022/09/11 06:53:34;;;;;;;12.87;9.17;;;21.20;63.20;;;;;;5063488;28;21559;-85
2022/09/11 06:56:07;;;;;;;10.30;8.87;;;21.20;62.50;;;;;;5043749;28;20979;-84
2022/09/11 06:58:35;;;;;;;10.90;8.87;;;21.20;61.70;;;;;;5044802;28;20504;-84
2022/09/11 07:01:03;;;;;;;11.40;8.83;;;21.30;62.10;;;;;;5010049;28;20474;-84
2022/09/11 07:03:34;;;;;;;11.83;9.40;;;21.40;61.80;;;;;;5048336;28;20442;-84
2022/09/11 07:06:06;;;;;;;10.40;8.97;;;21.30;61.90;;;;;;5016496;28;20890;-84
2022/09/11 07:08:33;;;;;;;10.73;8.63;;;21.40;61.40;;;;;;5045122;28;22008;-84
2022/09/11 07:11:03;;;;;;;12.43;9.23;;;21.40;61.50;;;;;;5027426;28;20459;-85
2022/09/11 07:13:33;;;;;;;9.50;8.50;;;21.50;61.30;;;;;;5036865;28;20853;-84
2022/09/11 07:16:01;;;;;;;11.53;8.23;;;21.50;60.80;;;;;;5024838;28;20470;-85
2022/09/11 07:18:35;;;;;;;10.80;9.13;;;21.60;61.20;;;;;;5039341;28;20538;-85
2022/09/11 07:21:08;;;;;;;9.80;7.40;;;21.60;61.40;;;;;;5040513;28;20504;-85
2022/09/11 07:23:35;;;;;;;11.77;9.07;;;21.70;60.80;;;;;;5011353;28;20447;-85
2022/09/11 07:26:04;;;;;;;11.30;8.33;;;21.50;61.30;;;;;;5037546;28;20514;-87
2022/09/11 07:28:32;;;;;;;14.10;9.00;;;21.60;61.70;;;;;;5031709;28;20484;-86
2022/09/11 07:31:09;;;;;;;16.10;9.23;;;21.60;61.40;;;;;;5040652;28;20481;-84
2022/09/11 07:33:38;;;;;;;11.40;9.00;;;21.70;61.50;;;;;;5031826;28;20444;-85
2022/09/11 07:36:10;;;;;;;9.43;8.43;;;21.70;60.90;;;;;;5056806;28;20877;-86
2022/09/11 07:38:41;;;;;;;12.43;9.00;;;21.80;61.60;;;;;;5040301;28;20478;-86
2022/09/11 07:41:10;;;;;;;11.73;9.00;;;21.80;60.50;;;;;;5044197;28;21168;-85
2022/09/11 07:43:40;;;;;;;11.70;8.30;;;21.60;60.90;;;;;;5030815;28;20463;-87
2022/09/11 07:46:09;;;;;;;11.13;8.60;;;21.60;61.40;;;;;;5026126;28;20460;-86
2022/09/11 07:48:39;;;;;;;13.60;9.23;;;21.90;61.70;;;;;;5030621;28;20472;-87
2022/09/11 07:51:08;;;;;;;14.47;8.70;;;21.90;59.50;;;;;;5022034;28;20971;-87
2022/09/11 07:53:36;;;;;;;12.60;9.30;;;21.80;59.70;;;;;;5040500;28;20951;-84
2022/09/11 07:56:05;;;;;;;13.30;9.60;;;21.70;59.80;;;;;;5023430;28;20484;-85
2022/09/11 07:58:34;;;;;;;13.37;9.43;;;21.70;59.70;;;;;;5048776;28;20480;-86
2022/09/11 08:01:02;;;;;;;15.77;10.40;;;21.70;59.50;;;;;;5023839;28;20459;-86
2022/09/11 08:03:30;;;;;;;11.50;9.40;;;21.70;60.70;;;;;;5039502;28;20464;-85
2022/09/11 08:05:59;;;;;;;12.47;9.43;;;21.70;59.10;;;;;;5059512;28;20463;-86
2022/09/11 08:08:28;;;;;;;11.93;9.53;;;21.80;60.30;;;;;;5040066;28;20556;-86
2022/09/11 08:10:55;;;;;;;11.40;8.67;;;21.90;59.90;;;;;;5026946;28;20809;-88
2022/09/11 08:13:23;;;;;;;12.90;9.57;;;22.00;58.50;;;;;;5040882;28;20914;-87
2022/09/11 08:15:51;;;;;;;13.80;10.60;;;21.90;58.90;;;;;;5036870;28;20543;-86
2022/09/11 08:18:19;;;;;;;13.93;10.43;;;21.80;58.70;;;;;;5024385;28;20512;-87
2022/09/11 08:20:46;;;;;;;13.60;9.30;;;21.70;59.20;;;;;;5025183;28;20471;-86
2022/09/11 08:23:15;;;;;;;14.10;8.93;;;21.50;59.80;;;;;;5056974;28;20472;-86
2022/09/11 08:25:43;;;;;;;13.17;9.97;;;21.40;59.80;;;;;;5008322;28;20452;-85
2022/09/11 08:28:10;;;;;;;12.63;9.47;;;21.50;61.00;;;;;;5037885;28;20464;-85
2022/09/11 08:30:37;;;;;;;11.40;9.00;;;21.70;59.90;;;;;;5024056;28;20949;-84
2022/09/11 08:33:05;;;;;;;12.90;8.73;;;21.80;59.60;;;;;;5032785;28;20441;-85
2022/09/11 08:35:36;;;;;;;12.67;9.87;;;21.90;59.80;;;;;;5025170;28;20472;-86
2022/09/11 08:38:03;;;;;;;11.60;8.60;;;22.00;59.80;;;;;;5046024;28;20481;-85
2022/09/11 08:40:37;;;;;;;10.83;8.83;;;22.10;59.90;;;;;;5012073;28;20585;-87
2022/09/11 08:43:05;;;;;;;10.17;8.83;;;22.10;57.90;;;;;;5045486;28;20456;-86
2022/09/11 08:45:35;;;;;;;9.63;8.37;;;22.10;58.20;;;;;;5025458;28;20637;-84
2022/09/11 08:48:05;;;;;;;10.60;8.40;;;22.20;58.70;;;;;;5030116;28;20467;-86
2022/09/11 08:50:38;;;;;;;9.90;8.50;;;22.10;56.70;;;;;;5027588;28;20542;-86
2022/09/11 08:53:09;;;;;;;10.23;8.60;;;22.00;56.90;;;;;;5029363;28;20523;-86
2022/09/11 08:55:42;;;;;;;9.43;8.10;;;21.90;58.10;;;;;;5045558;28;20470;-86
2022/09/11 08:58:19;;;;;;;9.50;8.60;;;22.10;58.20;;;;;;5059547;28;20461;-86
2022/09/11 09:00:54;;;;;;;10.43;7.93;;;22.10;57.30;;;;;;5037505;28;20976;-86
2022/09/11 09:03:41;;;;;;;9.17;7.90;;;22.10;57.70;;;;;;5065794;28;20993;-85
2022/09/11 09:06:29;;;;;;;9.63;8.13;;;22.00;57.90;;;;;;5028523;28;20445;-86
2022/09/11 09:09:07;;;;;;;9.90;7.73;;;22.00;57.70;;;;;;5030785;28;20492;-88
2022/09/11 09:11:42;;;;;;;12.27;8.80;;;22.20;57.50;;;;;;5032790;28;20441;-85
2022/09/11 09:14:23;;;;;;;9.40;7.60;;;22.00;56.70;;;;;;5029791;28;20447;-86
2022/09/11 09:16:55;;;;;;;8.13;7.23;;;22.20;56.50;;;;;;5032820;28;20456;-86
2022/09/11 09:19:29;;;;;;;12.50;8.23;;;22.30;56.60;;;;;;5030235;28;20480;-86
2022/09/11 09:22:05;;;;;;;11.33;7.90;;;22.30;56.30;;;;;;5030224;28;20467;-86
2022/09/11 09:24:40;;;;;;;12.90;8.10;;;22.60;56.80;;;;;;5033362;28;20469;-85
2022/09/11 09:27:15;;;;;;;9.00;8.10;;;22.70;55.40;;;;;;5010045;28;20464;-86
2022/09/11 09:29:46;;;;;;;6.70;6.00;;;22.90;55.20;;;;;;5030984;28;21278;-86
2022/09/11 09:32:19;;;;;;;6.30;5.73;;;23.00;54.10;;;;;;5062193;28;20433;-87
2022/09/11 09:34:49;;;;;;;6.93;6.17;;;23.10;53.60;;;;;;5048432;28;20450;-84
2022/09/11 09:37:20;;;;;;;6.87;6.10;;;23.10;53.90;;;;;;5045873;28;20952;-86
2022/09/11 09:39:47;;;;;;;7.60;6.90;;;23.30;53.70;;;;;;5045373;28;20499;-86
2022/09/11 09:42:42;;;;;;;9.53;7.00;;;23.60;53.50;;;;;;5029399;28;20468;-86
2022/09/11 09:45:26;;;;;;;7.30;6.50;;;23.80;53.10;;;;;;5028090;28;20452;-87
2022/09/11 09:47:53;;;;;;;8.00;6.77;;;24.00;52.20;;;;;;5032594;28;20452;-86
2022/09/11 09:50:24;;;;;;;7.40;6.60;;;23.90;51.80;;;;;;5062429;28;20472;-87
2022/09/11 09:52:58;;;;;;;7.50;6.53;;;23.90;51.50;;;;;;5061050;28;20472;-86
2022/09/11 09:55:25;;;;;;;6.93;6.03;;;23.90;52.50;;;;;;5042369;28;20475;-86
2022/09/11 09:57:54;;;;;;;6.70;6.10;;;23.90;51.60;;;;;;5065171;28;21084;-85
2022/09/11 10:00:21;;;;;;;7.30;5.90;;;23.90;52.00;;;;;;5029327;28;20464;-86
2022/09/11 10:02:53;;;;;;;7.67;6.83;;;24.00;52.50;;;;;;5032709;28;20513;-87
2022/09/11 10:05:25;;;;;;;7.40;6.70;;;24.10;51.30;;;;;;5046599;28;20445;-86
2022/09/11 10:07:54;;;;;;;9.80;7.10;;;23.90;52.00;;;;;;5042739;28;20454;-87
2022/09/11 10:10:25;;;;;;;8.90;7.47;;;23.90;52.40;;;;;;5035776;28;20484;-86
2022/09/11 10:12:54;;;;;;;8.40;6.53;;;23.60;53.00;;;;;;5031979;28;20476;-86
2022/09/11 10:15:23;;;;;;;7.80;6.87;;;23.40;52.50;;;;;;5061280;28;20457;-87
2022/09/11 10:17:52;;;;;;;7.90;6.77;;;23.40;53.70;;;;;;5032248;28;21340;-86
2022/09/11 10:20:30;;;;;;;11.33;7.67;;;23.40;54.40;;;;;;5046755;28;20476;-86
2022/09/11 10:23:25;;;;;;;11.73;7.03;;;23.50;54.30;;;;;;5041566;28;20548;-87
2022/09/11 10:25:53;;;;;;;11.60;6.87;;;23.50;53.60;;;;;;5031884;28;20555;-86
2022/09/11 10:28:27;;;;;;;7.00;6.10;;;23.40;53.70;;;;;;5009177;28;20456;-87
2022/09/11 10:30:58;;;;;;;6.90;6.20;;;23.40;54.00;;;;;;5047130;28;20962;-86
2022/09/11 10:33:30;;;;;;;6.67;6.07;;;23.50;53.00;;;;;;5046193;28;20527;-87
2022/09/11 10:35:59;;;;;;;6.07;5.47;;;23.80;51.70;;;;;;5046268;28;20466;-87
2022/09/11 10:38:31;;;;;;;9.60;6.60;;;23.90;51.30;;;;;;5035691;28;20469;-88
2022/09/11 10:41:07;;;;;;;9.50;6.20;;;24.20;52.20;;;;;;5016420;28;20947;-87
2022/09/11 10:43:46;;;;;;;6.53;5.93;;;24.50;50.50;;;;;;5063791;28;20857;-87
2022/09/11 10:46:27;;;;;;;6.23;5.63;;;24.70;50.40;;;;;;5027545;28;20945;-87
2022/09/11 10:48:56;;;;;;;9.43;6.70;;;24.70;48.80;;;;;;5063160;28;20563;-87
2022/09/11 10:51:24;;;;;;;8.13;6.73;;;24.50;49.50;;;;;;5046134;28;20457;-86
2022/09/11 10:54:05;;;;;;;8.17;7.30;;;24.70;50.20;;;;;;5029326;28;20436;-86
2022/09/11 10:56:38;;;;;;;7.27;6.57;;;25.20;50.30;;;;;;5061860;28;20460;-87
2022/09/11 10:59:12;;;;;;;6.63;5.97;;;25.60;49.80;;;;;;5029205;28;20471;-87
2022/09/11 11:01:39;;;;;;;6.53;5.50;;;25.80;48.40;;;;;;5061623;28;20463;-86
2022/09/11 11:04:08;;;;;;;7.67;5.80;;;25.60;48.80;;;;;;5042357;28;20999;-87
2022/09/11 11:06:47;;;;;;;7.00;6.30;;;25.60;48.50;;;;;;5044758;28;20986;-87
2022/09/11 11:09:30;;;;;;;6.87;6.17;;;25.30;49.00;;;;;;5028172;28;20452;-85
2022/09/11 11:12:09;;;;;;;6.97;5.73;;;25.00;50.10;;;;;;5047304;28;21055;-87
2022/09/11 11:15:09;;;;;;;6.80;6.10;;;24.80;50.50;;;;;;5045282;28;20445;-87
2022/09/11 11:17:48;;;;;;;6.10;5.50;;;24.60;48.70;;;;;;5059292;28;21220;-87
2022/09/11 11:20:26;;;;;;;8.07;6.30;;;24.20;50.50;;;;;;5059828;28;20477;-85
2022/09/11 11:23:11;;;;;;;7.33;5.93;;;24.00;50.40;;;;;;5058678;28;20464;-86
2022/09/11 11:25:47;;;;;;;7.10;6.40;;;23.90;50.90;;;;;;5027778;28;20437;-86
2022/09/11 11:28:47;;;;;;;6.80;5.43;;;23.90;51.50;;;;;;5022299;28;20835;-84
2022/09/11 11:31:32;;;;;;;6.90;6.20;;;24.10;50.80;;;;;;5030579;28;20537;-87
2022/09/11 11:34:25;;;;;;;6.13;5.53;;;24.10;49.30;;;;;;5043712;28;20456;-87
2022/09/11 11:36:58;;;;;;;7.07;5.57;;;24.50;49.90;;;;;;5045049;28;20559;-87
2022/09/11 11:39:28;;;;;;;8.20;4.87;;;25.30;51.20;;;;;;5060950;28;20471;-87
2022/09/11 11:42:07;;;;;;;6.13;5.53;;;25.70;46.90;;;;;;5044918;28;20449;-87
2022/09/11 11:44:40;;;;;;;5.60;5.10;;;25.90;45.70;;;;;;5043974;28;20502;-87
2022/09/11 11:47:10;;;;;;;6.37;5.77;;;26.10;46.80;;;;;;5041058;28;20972;-88
2022/09/11 11:49:53;;;;;;;5.63;5.13;;;25.90;45.40;;;;;;5044433;28;20567;-88
2022/09/11 11:52:29;;;;;;;6.80;5.50;;;25.80;46.30;;;;;;5057939;28;20449;-86
2022/09/11 11:55:01;;;;;;;6.03;5.43;;;26.00;47.00;;;;;;5027641;28;20494;-87
2022/09/11 11:57:38;;;;;;;6.00;4.90;;;25.90;45.90;;;;;;5026847;28;20452;-87
2022/09/11 12:00:09;;;;;;;5.60;5.10;;;25.70;45.90;;;;;;5039464;28;20974;-88
2022/09/11 12:02:45;;;;;;;5.00;4.60;;;25.50;46.20;;;;;;5062115;28;20496;-88
2022/09/11 12:05:17;;;;;;;5.50;5.00;;;25.30;45.60;;;;;;5029669;28;20449;-87
2022/09/11 12:07:46;;;;;;;9.57;4.40;;;25.20;47.50;;;;;;5036799;28;20885;-90
2022/09/11 12:10:28;;;;;;;5.53;5.00;;;25.30;47.10;;;;;;5067229;28;20471;-89
2022/09/11 12:13:01;;;;;;;5.43;4.93;;;25.40;46.80;;;;;;5037987;28;20511;-88
2022/09/11 12:15:30;;;;;;;7.83;4.90;;;25.50;46.90;;;;;;5050927;28;20448;-87
2022/09/11 12:18:01;;;;;;;5.73;5.23;;;25.40;47.10;;;;;;5049779;28;20566;-88
2022/09/11 12:20:45;;;;;;;6.60;6.00;;;25.20;47.80;;;;;;5046921;28;20444;-88
2022/09/11 12:23:33;;;;;;;6.17;5.67;;;25.20;48.30;;;;;;5050390;28;20463;-89
2022/09/11 12:26:15;;;;;;;6.23;5.63;;;25.00;47.80;;;;;;5060382;28;20440;-88
2022/09/11 12:28:44;;;;;;;9.93;5.57;;;24.80;47.30;;;;;;5059767;28;20562;-88
2022/09/11 12:31:12;;;;;;;5.40;4.87;;;25.00;47.70;;;;;;5045445;28;20460;-87
2022/09/11 12:33:56;;;;;;;5.60;5.10;;;25.20;48.20;;;;;;5069547;28;20448;-87
2022/09/11 12:36:32;;;;;;;6.43;5.00;;;25.40;47.40;;;;;;5065702;28;20538;-88
2022/09/11 12:39:04;;;;;;;5.90;5.10;;;25.50;47.10;;;;;;5030923;28;20468;-87
2022/09/11 12:41:33;;;;;;;6.27;5.67;;;25.50;46.70;;;;;;5066119;28;20436;-89
2022/09/11 12:44:03;;;;;;;6.30;4.50;;;25.60;45.80;;;;;;5030799;28;20468;-86
2022/09/11 12:47:08;;;;;;;5.03;4.53;;;25.80;45.90;;;;;;5065873;28;20432;-88
2022/09/11 12:49:36;;;;;;;4.80;4.40;;;26.10;45.50;;;;;;5035620;28;20468;-88
2022/09/11 12:52:03;;;;;;;6.50;4.57;;;26.20;44.80;;;;;;5050225;28;20456;-88
2022/09/11 12:54:37;;;;;;;5.37;4.93;;;26.40;44.40;;;;;;5048009;28;20979;-88
2022/09/11 12:57:07;;;;;;;8.57;5.37;;;26.20;45.60;;;;;;5038922;28;20499;-88
2022/09/11 12:59:38;;;;;;;8.43;7.63;;;26.10;45.70;;;;;;5051786;28;20470;-86
2022/09/11 13:02:19;;;;;;;7.20;5.80;;;25.90;45.70;;;;;;5031105;28;20864;-88
2022/09/11 13:04:47;;;;;;;6.97;6.37;;;25.80;46.30;;;;;;5047252;28;20488;-89
2022/09/11 13:07:27;;;;;;;6.33;5.73;;;25.80;47.40;;;;;;5048430;28;20432;-88
2022/09/11 13:09:56;;;;;;;6.00;5.50;;;25.80;46.80;;;;;;5065426;28;20471;-87